Time;durP1;ratioP1;P1;durP2;ratioP2;P2;SDS_P1;SDS_P2;PMS_P1;PMS_P2;Temp;Humidity;BMP_temperature;BMP_pressure;BME280_temperature;BME280_humidity;BME280_pressure;Samples;Min_cycle;Max_cycle;Signal;HPM_P1;HPM_P2
2023/11/02 06:01:41;;;;;;;10.77;3.38;;;;;;;;;;4366777;23;20095;-74
2023/11/02 06:03:42;;;;;;;11.73;3.50;;;;;;;;;;4062570;29;20472;-75
2023/11/02 06:05:45;;;;;;;10.00;3.38;;;;;;;;;;4055190;29;20139;-75
2023/11/02 06:07:48;;;;;;;12.98;3.15;;;;;;;;;;4063757;29;20111;-75
2023/11/02 06:09:50;;;;;;;11.18;3.17;;;;;;;;;;4070766;29;20056;-76
2023/11/02 06:11:52;;;;;;;8.50;2.53;;;;;;;;;;4070934;29;20127;-75
2023/11/02 06:13:54;;;;;;;10.63;2.80;;;;;;;;;;4070800;29;20103;-75
2023/11/02 06:15:55;;;;;;;8.23;2.25;;;;;;;;;;4070854;29;20458;-75
2023/11/02 06:17:59;;;;;;;9.55;3.00;;;;;;;;;;4070777;29;20139;-75
2023/11/02 06:20:00;;;;;;;11.48;3.08;;;;;;;;;;4061793;29;20085;-74
2023/11/02 06:22:02;;;;;;;8.73;2.67;;;;;;;;;;4054932;29;20051;-75
2023/11/02 06:24:05;;;;;;;12.82;2.97;;;;;;;;;;4055074;29;20048;-76
2023/11/02 06:26:07;;;;;;;8.50;2.50;;;;;;;;;;4055088;29;20062;-76
2023/11/02 06:28:09;;;;;;;8.82;2.80;;;;;;;;;;4065402;29;20052;-75
2023/11/02 06:30:13;;;;;;;8.10;2.30;;;;;;;;;;4070567;29;20048;-75
2023/11/02 06:32:14;;;;;;;6.30;2.13;;;;;;;;;;4070656;29;20406;-75
2023/11/02 06:34:19;;;;;;;7.93;2.45;;;;;;;;;;4058908;29;20491;-74
2023/11/02 06:36:21;;;;;;;8.07;2.40;;;;;;;;;;4054762;29;20060;-75
2023/11/02 06:38:23;;;;;;;6.85;2.13;;;;;;;;;;4054926;29;20049;-75
2023/11/02 06:40:25;;;;;;;8.15;2.45;;;;;;;;;;4054969;29;20049;-75
2023/11/02 06:42:27;;;;;;;10.75;2.53;;;;;;;;;;4054677;29;20049;-75
2023/11/02 06:44:29;;;;;;;7.20;2.20;;;;;;;;;;4054675;29;20129;-74
2023/11/02 06:46:32;;;;;;;6.35;1.88;;;;;;;;;;4066845;29;20052;-75
2023/11/02 06:48:34;;;;;;;6.68;2.10;;;;;;;;;;4070138;29;20056;-74
2023/11/02 06:50:37;;;;;;;6.90;2.30;;;;;;;;;;4070191;29;20059;-75
2023/11/02 06:52:40;;;;;;;6.10;2.15;;;;;;;;;;4070070;29;20108;-75
2023/11/02 06:54:44;;;;;;;5.43;2.08;;;;;;;;;;4070032;29;20174;-76
2023/11/02 06:56:46;;;;;;;6.40;2.05;;;;;;;;;;4070138;29;20052;-75
2023/11/02 06:58:48;;;;;;;7.13;2.10;;;;;;;;;;4070029;29;20107;-75
2023/11/02 07:00:50;;;;;;;6.20;1.88;;;;;;;;;;4069782;29;20048;-76
2023/11/02 07:02:52;;;;;;;6.53;2.05;;;;;;;;;;4070010;29;20048;-75
2023/11/02 07:04:57;;;;;;;8.13;2.35;;;;;;;;;;4069886;29;20099;-76
2023/11/02 07:07:01;;;;;;;5.75;1.90;;;;;;;;;;4069980;29;20572;-75
2023/11/02 07:09:03;;;;;;;9.10;2.17;;;;;;;;;;4069863;29;20569;-75
2023/11/02 07:11:05;;;;;;;4.68;1.60;;;;;;;;;;4069900;29;20074;-75
2023/11/02 07:13:09;;;;;;;4.93;1.60;;;;;;;;;;4069790;29;20056;-75
2023/11/02 07:15:13;;;;;;;7.15;2.20;;;;;;;;;;4069679;29;20048;-74
2023/11/02 07:17:16;;;;;;;4.63;1.60;;;;;;;;;;4069681;29;20096;-74
2023/11/02 07:19:18;;;;;;;7.43;1.90;;;;;;;;;;4069768;29;20104;-75
2023/11/02 07:21:20;;;;;;;7.20;1.92;;;;;;;;;;4069668;29;20056;-75
2023/11/02 07:23:24;;;;;;;6.18;1.83;;;;;;;;;;4054905;29;20081;-75
2023/11/02 07:25:26;;;;;;;5.15;1.80;;;;;;;;;;4054063;29;20049;-75
2023/11/02 07:27:29;;;;;;;5.68;1.80;;;;;;;;;;4054043;29;20049;-75
2023/11/02 07:29:30;;;;;;;4.90;1.90;;;;;;;;;;4053959;29;20083;-76
2023/11/02 07:31:32;;;;;;;4.82;1.67;;;;;;;;;;4054058;29;20418;-75
2023/11/02 07:33:40;;;;;;;4.82;1.38;;;;;;;;;;4053978;29;20076;-76
2023/11/02 07:35:42;;;;;;;5.60;1.85;;;;;;;;;;4053811;29;20100;-76
2023/11/02 07:37:44;;;;;;;6.53;1.40;;;;;;;;;;4053582;29;20053;-79
2023/11/02 07:39:47;;;;;;;6.93;1.60;;;;;;;;;;4053959;29;20049;-77
2023/11/02 07:41:50;;;;;;;5.75;1.67;;;;;;;;;;4053857;29;20112;-77
2023/11/02 07:43:52;;;;;;;6.28;1.60;;;;;;;;;;4053837;29;20053;-79
2023/11/02 07:45:54;;;;;;;10.07;1.65;;;;;;;;;;4053695;29;20045;-77
2023/11/02 07:47:56;;;;;;;5.55;1.50;;;;;;;;;;4053822;29;20053;-79
2023/11/02 07:49:57;;;;;;;5.35;1.52;;;;;;;;;;4053728;29;20056;-76
2023/11/02 07:52:00;;;;;;;7.60;1.45;;;;;;;;;;4053757;29;20439;-76
2023/11/02 07:54:02;;;;;;;4.93;1.75;;;;;;;;;;4053595;29;20104;-74
2023/11/02 07:56:05;;;;;;;5.07;1.70;;;;;;;;;;4053627;29;20048;-77
2023/11/02 07:58:07;;;;;;;4.95;1.73;;;;;;;;;;4053808;29;20048;-75
2023/11/02 08:00:11;;;;;;;5.53;1.85;;;;;;;;;;4053775;29;20395;-78
2023/11/02 08:02:13;;;;;;;6.65;1.48;;;;;;;;;;4053103;29;20112;-78
2023/11/02 08:04:15;;;;;;;5.57;1.60;;;;;;;;;;4051614;29;20049;-78
2023/11/02 08:06:17;;;;;;;6.45;1.65;;;;;;;;;;4051792;29;20052;-79
2023/11/02 08:08:20;;;;;;;4.80;1.55;;;;;;;;;;4051621;29;20458;-76
2023/11/02 08:10:21;;;;;;;7.28;1.60;;;;;;;;;;4051618;29;20108;-76
2023/11/02 08:12:25;;;;;;;5.05;1.50;;;;;;;;;;4051280;29;20059;-76
2023/11/02 08:14:27;;;;;;;4.43;1.50;;;;;;;;;;4051046;29;20056;-76
2023/11/02 08:16:30;;;;;;;4.32;1.38;;;;;;;;;;4062362;29;20064;-77
2023/11/02 08:18:32;;;;;;;4.90;1.58;;;;;;;;;;4066959;29;20071;-77
2023/11/02 08:20:34;;;;;;;4.10;1.30;;;;;;;;;;4066650;29;20060;-75
2023/11/02 08:22:36;;;;;;;6.72;1.50;;;;;;;;;;4066723;29;20047;-78
2023/11/02 08:24:39;;;;;;;3.65;1.30;;;;;;;;;;4066413;29;20103;-77
2023/11/02 08:26:41;;;;;;;4.38;1.38;;;;;;;;;;4066463;29;20052;-79
2023/11/02 08:28:44;;;;;;;4.18;1.40;;;;;;;;;;4066736;29;20107;-79
2023/11/02 08:30:46;;;;;;;3.63;1.27;;;;;;;;;;4066927;29;20440;-77
2023/11/02 08:32:48;;;;;;;4.78;1.23;;;;;;;;;;4066390;29;20425;-77
2023/11/02 08:34:51;;;;;;;4.40;1.30;;;;;;;;;;4066374;29;20452;-76
2023/11/02 08:36:53;;;;;;;4.53;1.25;;;;;;;;;;4066526;29;20601;-76
2023/11/02 08:38:54;;;;;;;3.70;1.10;;;;;;;;;;4066487;29;20059;-76
2023/11/02 08:40:56;;;;;;;3.40;1.25;;;;;;;;;;4069091;29;20462;-76
2023/11/02 08:42:58;;;;;;;3.90;1.35;;;;;;;;;;4066388;29;20067;-77
2023/11/02 08:45:01;;;;;;;3.45;1.05;;;;;;;;;;4066430;29;20095;-77
2023/11/02 08:47:04;;;;;;;2.65;1.00;;;;;;;;;;4066242;29;20566;-76
2023/11/02 08:49:06;;;;;;;4.88;1.30;;;;;;;;;;4066298;29;20056;-78
2023/11/02 08:51:09;;;;;;;4.05;1.17;;;;;;;;;;4064408;29;20473;-77
2023/11/02 08:53:12;;;;;;;4.88;1.50;;;;;;;;;;4066460;29;20048;-75
2023/11/02 08:55:14;;;;;;;3.47;1.25;;;;;;;;;;4077808;29;20461;-79
2023/11/02 08:57:16;;;;;;;3.80;1.30;;;;;;;;;;4082211;29;20642;-79
2023/11/02 08:59:20;;;;;;;2.97;1.08;;;;;;;;;;4081910;29;20097;-76
2023/11/02 09:01:25;;;;;;;3.40;1.00;;;;;;;;;;4080920;29;20052;-77
2023/11/02 09:03:29;;;;;;;3.55;1.10;;;;;;;;;;4081233;29;20052;-77
2023/11/02 09:05:30;;;;;;;3.90;1.17;;;;;;;;;;4082096;29;20063;-76
2023/11/02 09:07:32;;;;;;;3.10;0.90;;;;;;;;;;4082068;29;20052;-77
2023/11/02 09:09:34;;;;;;;2.35;1.10;;;;;;;;;;4082010;29;20098;-78
2023/11/02 09:11:36;;;;;;;3.03;1.10;;;;;;;;;;4081864;29;20324;-75
2023/11/02 09:13:39;;;;;;;3.97;1.20;;;;;;;;;;4081971;29;20052;-78
2023/11/02 09:15:42;;;;;;;4.68;1.00;;;;;;;;;;4083494;29;20048;-76
2023/11/02 09:17:46;;;;;;;4.10;1.00;;;;;;;;;;4085028;29;20079;-77
2023/11/02 09:19:48;;;;;;;2.70;1.08;;;;;;;;;;4084983;29;20103;-77
2023/11/02 09:21:50;;;;;;;2.90;1.08;;;;;;;;;;4082057;29;20127;-76
2023/11/02 09:23:52;;;;;;;2.33;0.90;;;;;;;;;;4069271;29;20120;-76
2023/11/02 09:25:54;;;;;;;3.83;0.98;;;;;;;;;;4069274;29;20095;-75
2023/11/02 09:27:57;;;;;;;2.83;1.00;;;;;;;;;;4069244;29;20404;-76
2023/11/02 09:30:00;;;;;;;2.13;0.80;;;;;;;;;;4069368;29;20064;-74
2023/11/02 09:32:02;;;;;;;3.03;1.00;;;;;;;;;;4069261;29;20544;-76
2023/11/02 09:34:05;;;;;;;2.45;1.00;;;;;;;;;;4069239;29;20466;-78
2023/11/02 09:36:09;;;;;;;2.88;0.90;;;;;;;;;;4069319;29;20056;-76
2023/11/02 09:38:11;;;;;;;2.60;0.93;;;;;;;;;;4068957;29;20099;-76
2023/11/02 09:40:12;;;;;;;2.42;1.00;;;;;;;;;;4069121;29;20100;-74
2023/11/02 09:42:14;;;;;;;2.38;0.90;;;;;;;;;;4069207;29;20079;-77
2023/11/02 09:44:17;;;;;;;2.50;0.93;;;;;;;;;;4069229;29;20473;-78
2023/11/02 09:46:19;;;;;;;2.75;0.90;;;;;;;;;;4069107;29;20052;-75
2023/11/02 09:48:21;;;;;;;2.42;1.00;;;;;;;;;;4069101;29;20112;-77
2023/11/02 09:50:25;;;;;;;2.35;0.88;;;;;;;;;;4068647;29;20055;-76
2023/11/02 09:52:27;;;;;;;4.90;1.10;;;;;;;;;;4067998;29;20047;-75
2023/11/02 09:54:29;;;;;;;2.83;0.85;;;;;;;;;;4071195;29;20124;-74
2023/11/02 09:56:31;;;;;;;2.45;0.80;;;;;;;;;;4069134;29;20056;-77
2023/11/02 09:58:34;;;;;;;2.42;1.00;;;;;;;;;;4069023;29;20379;-75
2023/11/02 10:00:37;;;;;;;4.18;1.10;;;;;;;;;;4068814;29;20111;-76
2023/11/02 10:02:40;;;;;;;2.15;0.80;;;;;;;;;;4068933;29;20453;-78
2023/11/02 10:04:43;;;;;;;3.00;1.00;;;;;;;;;;4068864;29;20048;-75
2023/11/02 10:06:47;;;;;;;2.42;0.77;;;;;;;;;;4069006;29;20482;-77
2023/11/02 10:08:49;;;;;;;2.95;0.90;;;;;;;;;;4068958;29;20450;-75
2023/11/02 10:10:53;;;;;;;2.75;1.00;;;;;;;;;;4068832;29;20467;-79
2023/11/02 10:12:55;;;;;;;3.15;0.95;;;;;;;;;;4068781;29;20054;-80
2023/11/02 10:14:58;;;;;;;1.98;0.80;;;;;;;;;;4068619;29;20049;-76
2023/11/02 10:17:02;;;;;;;2.97;1.00;;;;;;;;;;4068450;29;20055;-76
2023/11/02 10:19:04;;;;;;;3.03;1.00;;;;;;;;;;4068565;29;20409;-78
2023/11/02 10:21:08;;;;;;;3.42;1.00;;;;;;;;;;4068550;29;20104;-77
2023/11/02 10:23:13;;;;;;;2.85;0.80;;;;;;;;;;4068541;29;20056;-79
2023/11/02 10:25:14;;;;;;;2.45;1.02;;;;;;;;;;4068474;29;20052;-78
2023/11/02 10:27:17;;;;;;;2.20;0.82;;;;;;;;;;4067895;29;20055;-77
2023/11/02 10:29:19;;;;;;;2.17;0.70;;;;;;;;;;4068353;29;20470;-78
2023/11/02 10:31:24;;;;;;;2.60;0.90;;;;;;;;;;4068288;29;20056;-78
2023/11/02 10:33:30;;;;;;;2.30;0.90;;;;;;;;;;4068212;29;20100;-74
2023/11/02 10:35:32;;;;;;;2.42;0.80;;;;;;;;;;4068372;29;20059;-77
2023/11/02 10:37:36;;;;;;;3.85;0.93;;;;;;;;;;4068228;29;20100;-76
2023/11/02 10:39:39;;;;;;;2.35;0.80;;;;;;;;;;4067920;29;20138;-78
2023/11/02 10:41:42;;;;;;;3.20;0.80;;;;;;;;;;4068113;29;20063;-78
2023/11/02 10:43:45;;;;;;;2.55;0.80;;;;;;;;;;4068266;29;20048;-78
2023/11/02 10:45:49;;;;;;;1.98;0.63;;;;;;;;;;4068176;29;20470;-79
2023/11/02 10:47:53;;;;;;;3.47;0.90;;;;;;;;;;4068107;29;20059;-76
2023/11/02 10:49:56;;;;;;;2.25;0.82;;;;;;;;;;4068066;29;20052;-77
2023/11/02 10:51:59;;;;;;;2.08;0.90;;;;;;;;;;4065912;29;20123;-77
2023/11/02 10:54:07;;;;;;;3.45;0.93;;;;;;;;;;4068213;29;20048;-77
2023/11/02 10:56:15;;;;;;;1.83;0.80;;;;;;;;;;4068010;29;20052;-76
2023/11/02 10:58:18;;;;;;;1.88;0.80;;;;;;;;;;4068096;29;20052;-76
2023/11/02 11:00:22;;;;;;;2.92;0.73;;;;;;;;;;4067958;29;20060;-75
2023/11/02 11:02:24;;;;;;;2.22;0.95;;;;;;;;;;4067634;29;20075;-76
2023/11/02 11:04:26;;;;;;;1.60;0.70;;;;;;;;;;4067863;29;20048;-77
2023/11/02 11:06:29;;;;;;;1.83;0.70;;;;;;;;;;4067913;29;20059;-75
2023/11/02 11:08:31;;;;;;;2.67;0.88;;;;;;;;;;4067801;29;20403;-76
2023/11/02 11:10:34;;;;;;;2.28;0.80;;;;;;;;;;4067838;29;20549;-76
2023/11/02 11:12:37;;;;;;;2.40;0.77;;;;;;;;;;4068009;29;20048;-77
2023/11/02 11:14:40;;;;;;;1.90;0.80;;;;;;;;;;4067467;29;20565;-77
2023/11/02 11:16:44;;;;;;;2.72;0.80;;;;;;;;;;4067593;29;20056;-77
2023/11/02 11:18:47;;;;;;;2.53;0.80;;;;;;;;;;4067731;29;20545;-77
2023/11/02 11:20:49;;;;;;;2.70;0.90;;;;;;;;;;4068006;29;20119;-77
2023/11/02 11:22:52;;;;;;;1.95;0.77;;;;;;;;;;4056834;29;20059;-76
2023/11/02 11:24:55;;;;;;;2.83;0.85;;;;;;;;;;4051985;29;20053;-77
2023/11/02 11:26:58;;;;;;;1.70;0.70;;;;;;;;;;4051721;29;20080;-74
2023/11/02 11:29:01;;;;;;;1.95;0.70;;;;;;;;;;4052180;29;20092;-77
2023/11/02 11:31:04;;;;;;;1.70;0.70;;;;;;;;;;4051858;29;20052;-78
2023/11/02 11:33:40;;;;;;;2.20;0.80;;;;;;;;;;4051923;29;20563;-77
2023/11/02 11:36:18;;;;;;;1.42;0.60;;;;;;;;;;4051742;29;20060;-79
2023/11/02 11:38:35;;;;;;;3.42;0.60;;;;;;;;;;4051129;29;20071;-78
2023/11/02 11:40:41;;;;;;;1.60;0.60;;;;;;;;;;4051867;29;20048;-78
2023/11/02 11:43:01;;;;;;;1.98;0.75;;;;;;;;;;4051864;29;20052;-78
2023/11/02 11:45:30;;;;;;;2.67;0.88;;;;;;;;;;4051828;29;20053;-77
2023/11/02 11:47:47;;;;;;;2.15;0.70;;;;;;;;;;4051812;29;20064;-79
2023/11/02 11:49:49;;;;;;;2.97;0.90;;;;;;;;;;4051793;29;20076;-78
2023/11/02 11:51:51;;;;;;;3.35;0.95;;;;;;;;;;4049521;29;20052;-78
2023/11/02 11:54:08;;;;;;;2.63;1.02;;;;;;;;;;4051437;29;20097;-80
2023/11/02 11:56:33;;;;;;;2.25;0.90;;;;;;;;;;4051515;29;20147;-79
2023/11/02 11:58:49;;;;;;;5.97;1.10;;;;;;;;;;4051389;29;20100;-80
2023/11/02 12:01:15;;;;;;;11.73;1.40;;;;;;;;;;4051178;29;20065;-82
2023/11/02 12:03:48;;;;;;;6.20;1.35;;;;;;;;;;4051363;29;20067;-80
2023/11/02 12:05:56;;;;;;;6.03;1.30;;;;;;;;;;4051638;29;20053;-80
2023/11/02 12:08:02;;;;;;;5.60;1.45;;;;;;;;;;4051711;29;20063;-79
2023/11/02 12:10:05;;;;;;;4.70;1.20;;;;;;;;;;4051575;29;20529;-80
2023/11/02 12:12:08;;;;;;;5.43;1.10;;;;;;;;;;4051239;29;20080;-78
2023/11/02 12:14:15;;;;;;;5.47;1.20;;;;;;;;;;4051203;29;20459;-79
2023/11/02 12:16:18;;;;;;;3.75;1.00;;;;;;;;;;4051422;29;20053;-80
2023/11/02 12:18:28;;;;;;;2.58;0.88;;;;;;;;;;4051747;29;20052;-80
2023/11/02 12:20:34;;;;;;;3.42;0.90;;;;;;;;;;4051437;29;20476;-78
2023/11/02 12:22:48;;;;;;;;;;;;;;;;;;4060467;29;20059;-79
2023/11/02 12:24:56;;;;;;;3.05;1.00;;;;;;;;;;4066777;29;19926;-79
2023/11/02 12:27:12;;;;;;;4.93;1.00;;;;;;;;;;4066513;29;20107;-79
2023/11/02 12:29:14;;;;;;;3.95;1.02;;;;;;;;;;4066923;29;20056;-79
2023/11/02 12:31:27;;;;;;;2.97;0.90;;;;;;;;;;4066962;29;20475;-78
2023/11/02 12:33:29;;;;;;;4.00;0.90;;;;;;;;;;4067025;29;20508;-79
2023/11/02 12:35:32;;;;;;;2.85;0.85;;;;;;;;;;4066792;29;20115;-78
2023/11/02 12:37:34;;;;;;;2.20;0.80;;;;;;;;;;4066702;29;20301;-79
2023/11/02 12:39:36;;;;;;;2.15;0.80;;;;;;;;;;4066552;29;20131;-80
2023/11/02 12:41:38;;;;;;;2.83;0.93;;;;;;;;;;4066792;29;20052;-78
2023/11/02 12:43:43;;;;;;;4.30;1.00;;;;;;;;;;4066750;29;20063;-79
2023/11/02 12:45:45;;;;;;;2.35;0.80;;;;;;;;;;4066953;29;20429;-81
2023/11/02 12:47:49;;;;;;;3.25;0.80;;;;;;;;;;4066724;29;20139;-79
2023/11/02 12:49:51;;;;;;;2.08;0.82;;;;;;;;;;4068994;29;20116;-79
2023/11/02 12:52:04;;;;;;;4.13;0.93;;;;;;;;;;4067544;29;20056;-80
2023/11/02 12:54:08;;;;;;;2.50;0.90;;;;;;;;;;4069974;29;20052;-79
2023/11/02 12:56:12;;;;;;;1.90;0.60;;;;;;;;;;4069771;29;20056;-80
2023/11/02 12:58:16;;;;;;;2.72;0.88;;;;;;;;;;4069690;29;20143;-79
2023/11/02 13:00:18;;;;;;;2.45;0.82;;;;;;;;;;4069833;29;20505;-79
2023/11/02 13:02:25;;;;;;;2.00;0.73;;;;;;;;;;4069418;29;20143;-78
2023/11/02 13:04:48;;;;;;;2.92;0.93;;;;;;;;;;4069762;29;20128;-80
2023/11/02 13:06:51;;;;;;;1.80;0.60;;;;;;;;;;4069691;29;20505;-79
2023/11/02 13:09:06;;;;;;;2.17;0.73;;;;;;;;;;4069881;29;20043;-80
2023/11/02 13:11:08;;;;;;;;;;;;;;;;;;4070161;29;20055;-79
2023/11/02 13:13:10;;;;;;;1.90;0.70;;;;;;;;;;4069714;29;19931;-79
2023/11/02 13:15:16;;;;;;;2.00;0.80;;;;;;;;;;4069719;29;20052;-81
2023/11/02 13:17:19;;;;;;;2.30;0.88;;;;;;;;;;4069466;29;20052;-80
2023/11/02 13:19:22;;;;;;;2.85;0.80;;;;;;;;;;4069515;29;20127;-79
2023/11/02 13:21:24;;;;;;;2.40;0.80;;;;;;;;;;4069692;29;20162;-79
2023/11/02 13:23:28;;;;;;;2.47;0.82;;;;;;;;;;4053904;29;20104;-78
2023/11/02 13:25:29;;;;;;;2.25;0.77;;;;;;;;;;4053896;29;20060;-78
2023/11/02 13:27:32;;;;;;;2.78;0.60;;;;;;;;;;4053601;29;20084;-79
2023/11/02 13:29:34;;;;;;;2.30;0.77;;;;;;;;;;4053694;29;20147;-78
2023/11/02 13:31:37;;;;;;;2.30;0.70;;;;;;;;;;4053795;29;20108;-80
2023/11/02 13:33:41;;;;;;;2.60;0.82;;;;;;;;;;4053699;29;20108;-79
2023/11/02 13:35:43;;;;;;;1.45;0.52;;;;;;;;;;4053873;29;20083;-79
2023/11/02 13:37:47;;;;;;;2.17;0.60;;;;;;;;;;4053186;29;20462;-79
2023/11/02 13:39:49;;;;;;;1.65;0.70;;;;;;;;;;4053529;29;20053;-77
2023/11/02 13:41:51;;;;;;;2.55;0.68;;;;;;;;;;4053779;29;20056;-80
2023/11/02 13:43:52;;;;;;;2.28;0.68;;;;;;;;;;4053684;29;20490;-78
2023/11/02 13:45:55;;;;;;;2.13;0.80;;;;;;;;;;4053553;29;20502;-79
2023/11/02 13:47:57;;;;;;;1.77;0.63;;;;;;;;;;4053554;29;20056;-79
2023/11/02 13:50:00;;;;;;;1.77;0.70;;;;;;;;;;4053552;29;20407;-78
2023/11/02 13:52:02;;;;;;;1.70;0.77;;;;;;;;;;4051384;29;20717;-79
2023/11/02 13:54:06;;;;;;;1.48;0.60;;;;;;;;;;4053484;29;20056;-77
2023/11/02 13:56:11;;;;;;;1.25;0.50;;;;;;;;;;4053636;29;20052;-78
2023/11/02 13:58:12;;;;;;;2.87;0.60;;;;;;;;;;4053367;29;20052;-79
2023/11/02 14:00:16;;;;;;;1.27;0.50;;;;;;;;;;4052978;29;20320;-79
2023/11/02 14:02:20;;;;;;;2.08;0.68;;;;;;;;;;4052532;29;20406;-78
2023/11/02 14:04:22;;;;;;;0.93;0.40;;;;;;;;;;4053362;29;20049;-77
2023/11/02 14:06:24;;;;;;;1.80;0.68;;;;;;;;;;4053229;29;20112;-80
2023/11/02 14:08:27;;;;;;;2.45;0.50;;;;;;;;;;4053314;29;20542;-80
2023/11/02 14:10:31;;;;;;;1.60;0.60;;;;;;;;;;4053415;29;20048;-81
2023/11/02 14:12:33;;;;;;;1.65;0.68;;;;;;;;;;4053326;29;20329;-80
2023/11/02 14:14:35;;;;;;;2.00;0.70;;;;;;;;;;4052744;29;20089;-80
2023/11/02 14:16:37;;;;;;;2.50;0.70;;;;;;;;;;4053081;29;20196;-79
2023/11/02 14:18:40;;;;;;;2.30;0.65;;;;;;;;;;4053404;29;20479;-78
2023/11/02 14:20:42;;;;;;;2.10;0.68;;;;;;;;;;4052898;29;20056;-76
2023/11/02 14:22:44;;;;;;;2.00;0.77;;;;;;;;;;4062626;29;20048;-79
2023/11/02 14:24:52;;;;;;;2.28;0.77;;;;;;;;;;4068468;29;20056;-80
2023/11/02 14:26:56;;;;;;;2.60;0.90;;;;;;;;;;4068201;29;20067;-77
2023/11/02 14:28:58;;;;;;;2.60;0.93;;;;;;;;;;4068371;29;20062;-78
2023/11/02 14:31:01;;;;;;;2.22;0.90;;;;;;;;;;4068313;29;20410;-78
2023/11/02 14:33:04;;;;;;;2.78;1.02;;;;;;;;;;4068376;29;20058;-78
2023/11/02 14:35:06;;;;;;;2.45;0.98;;;;;;;;;;4068359;29;20115;-80
2023/11/02 14:37:08;;;;;;;2.70;0.80;;;;;;;;;;4068266;29;20052;-79
2023/11/02 14:39:10;;;;;;;2.45;0.88;;;;;;;;;;4067935;29;20060;-79
2023/11/02 14:41:12;;;;;;;2.92;0.90;;;;;;;;;;4059904;29;20117;-79
2023/11/02 14:43:16;;;;;;;2.55;0.90;;;;;;;;;;4052775;29;20115;-78
2023/11/02 14:45:17;;;;;;;2.38;0.90;;;;;;;;;;4052704;29;20127;-78
2023/11/02 14:47:21;;;;;;;2.08;0.80;;;;;;;;;;4052553;29;20194;-79
2023/11/02 14:49:24;;;;;;;2.65;0.90;;;;;;;;;;4052604;29;20052;-78
2023/11/02 14:51:26;;;;;;;1.90;0.70;;;;;;;;;;4050392;29;20510;-79
2023/11/02 14:53:28;;;;;;;2.03;0.73;;;;;;;;;;4052557;29;20384;-79
2023/11/02 14:55:30;;;;;;;1.90;0.80;;;;;;;;;;4052339;29;20395;-78
2023/11/02 14:57:33;;;;;;;3.13;0.90;;;;;;;;;;4052324;29;20558;-78
2023/11/02 14:59:38;;;;;;;2.80;0.77;;;;;;;;;;4052323;29;20297;-77
2023/11/02 15:01:41;;;;;;;;;;;;;;;;;;4052634;29;20396;-80
2023/11/02 15:03:43;;;;;;;2.17;0.90;;;;;;;;;;4052376;29;20310;-77
2023/11/02 15:05:44;;;;;;;1.83;0.73;;;;;;;;;;4053387;29;20601;-76
2023/11/02 15:07:46;;;;;;;2.42;0.85;;;;;;;;;;4066738;29;20052;-75
2023/11/02 15:09:48;;;;;;;2.42;0.70;;;;;;;;;;4067807;29;20056;-75
2023/11/02 15:11:50;;;;;;;5.25;1.13;;;;;;;;;;4067469;29;20052;-76
2023/11/02 15:13:52;;;;;;;2.88;0.90;;;;;;;;;;4067242;29;20060;-75
2023/11/02 15:15:56;;;;;;;2.55;1.00;;;;;;;;;;4065390;29;20463;-75
2023/11/02 15:17:58;;;;;;;2.00;0.80;;;;;;;;;;4067711;29;20561;-75
2023/11/02 15:20:04;;;;;;;3.25;1.00;;;;;;;;;;4066863;29;20051;-76
2023/11/02 15:22:06;;;;;;;3.10;0.90;;;;;;;;;;4067593;29;20067;-75
2023/11/02 15:24:09;;;;;;;3.97;1.30;;;;;;;;;;4067674;29;20391;-76
2023/11/02 15:26:11;;;;;;;3.42;1.15;;;;;;;;;;4067407;29;20056;-75
2023/11/02 15:28:13;;;;;;;3.58;1.17;;;;;;;;;;4066199;29;20202;-75
2023/11/02 15:30:19;;;;;;;5.35;1.60;;;;;;;;;;4067690;29;20056;-76
2023/11/02 15:32:23;;;;;;;4.63;1.45;;;;;;;;;;4067643;29;20048;-75
2023/11/02 15:34:25;;;;;;;4.97;1.55;;;;;;;;;;4067595;29;20107;-76
2023/11/02 15:36:27;;;;;;;6.38;1.65;;;;;;;;;;4067698;29;20096;-75
2023/11/02 15:38:29;;;;;;;5.03;1.60;;;;;;;;;;4066388;29;20458;-76
2023/11/02 15:40:31;;;;;;;7.32;1.95;;;;;;;;;;4066631;29;20051;-74
2023/11/02 15:42:33;;;;;;;5.20;1.88;;;;;;;;;;4067538;29;20127;-74
2023/11/02 15:44:35;;;;;;;5.63;2.00;;;;;;;;;;4064935;29;20072;-74
2023/11/02 15:46:40;;;;;;;6.70;2.10;;;;;;;;;;4067439;29;20462;-73
2023/11/02 15:48:44;;;;;;;5.10;1.83;;;;;;;;;;4067407;29;20060;-73
2023/11/02 15:50:47;;;;;;;6.78;1.88;;;;;;;;;;4067075;29;20088;-74
2023/11/02 15:52:50;;;;;;;5.10;1.90;;;;;;;;;;4063505;29;20399;-74
2023/11/02 15:54:53;;;;;;;8.95;2.13;;;;;;;;;;4058049;29;20052;-74
2023/11/02 15:56:56;;;;;;;5.63;1.88;;;;;;;;;;4059457;29;20056;-75
2023/11/02 15:58:58;;;;;;;6.03;1.88;;;;;;;;;;4066321;29;20056;-74
2023/11/02 16:01:00;;;;;;;7.07;2.00;;;;;;;;;;4063743;29;20139;-72
2023/11/02 16:03:02;;;;;;;5.72;2.20;;;;;;;;;;4064639;29;20514;-73
2023/11/02 16:05:07;;;;;;;8.32;2.50;;;;;;;;;;4064334;29;20056;-74
2023/11/02 16:07:10;;;;;;;6.90;2.10;;;;;;;;;;4064313;29;20131;-74
2023/11/02 16:09:12;;;;;;;8.48;2.20;;;;;;;;;;4065712;29;20048;-74
2023/11/02 16:11:15;;;;;;;6.93;2.55;;;;;;;;;;4064602;29;20487;-72
2023/11/02 16:13:17;;;;;;;7.82;2.03;;;;;;;;;;4067111;29;20055;-72
2023/11/02 16:15:19;;;;;;;9.00;2.50;;;;;;;;;;4066706;29;20048;-72
2023/11/02 16:17:22;;;;;;;6.57;2.25;;;;;;;;;;4066874;29;20391;-73
2023/11/02 16:19:28;;;;;;;7.20;2.60;;;;;;;;;;4066911;29;20095;-72
2023/11/02 16:21:32;;;;;;;7.40;2.30;;;;;;;;;;4066220;29;20063;-73
2023/11/02 16:23:33;;;;;;;6.32;2.13;;;;;;;;;;4066575;29;20062;-73
2023/11/02 16:25:38;;;;;;;6.75;2.10;;;;;;;;;;4066899;29;20060;-73
2023/11/02 16:27:42;;;;;;;6.88;2.42;;;;;;;;;;4066577;29;20053;-74
2023/11/02 16:29:44;;;;;;;7.57;2.20;;;;;;;;;;4066000;29;20139;-73
2023/11/02 16:31:45;;;;;;;7.63;2.17;;;;;;;;;;4065506;29;20103;-73
2023/11/02 16:33:48;;;;;;;6.38;2.30;;;;;;;;;;4066786;29;20052;-74
2023/11/02 16:35:50;;;;;;;6.57;2.30;;;;;;;;;;4066830;29;20455;-73
2023/11/02 16:37:54;;;;;;;8.68;2.33;;;;;;;;;;4066601;29;20570;-73
2023/11/02 16:39:57;;;;;;;10.07;2.33;;;;;;;;;;4066331;29;20059;-75
2023/11/02 16:41:59;;;;;;;8.05;2.33;;;;;;;;;;4066729;29;20055;-76
2023/11/02 16:44:02;;;;;;;7.30;2.10;;;;;;;;;;4065087;29;20056;-76
2023/11/02 16:46:05;;;;;;;7.57;2.13;;;;;;;;;;4066667;29;20063;-74
2023/11/02 16:48:07;;;;;;;8.50;2.58;;;;;;;;;;4066668;29;20399;-73
2023/11/02 16:50:10;;;;;;;6.95;2.20;;;;;;;;;;4066494;29;20765;-73
2023/11/02 16:52:12;;;;;;;7.18;2.13;;;;;;;;;;4064016;29;20138;-75
2023/11/02 16:54:17;;;;;;;7.72;2.00;;;;;;;;;;4054763;29;20056;-75
2023/11/02 16:56:19;;;;;;;8.40;2.13;;;;;;;;;;4066744;29;20060;-74
2023/11/02 16:58:21;;;;;;;7.97;2.20;;;;;;;;;;4066766;29;20052;-76
2023/11/02 17:00:23;;;;;;;7.72;2.45;;;;;;;;;;4066448;29;20462;-75
2023/11/02 17:02:25;;;;;;;7.40;1.95;;;;;;;;;;4066258;29;20056;-73
2023/11/02 17:04:26;;;;;;;7.88;1.70;;;;;;;;;;4066582;29;20084;-73
2023/11/02 17:06:29;;;;;;;8.50;2.10;;;;;;;;;;4064386;29;20118;-73
2023/11/02 17:08:31;;;;;;;6.25;2.03;;;;;;;;;;4066536;29;20052;-76
2023/11/02 17:10:34;;;;;;;6.70;2.22;;;;;;;;;;4066404;29;20052;-73
2023/11/02 17:12:36;;;;;;;7.82;2.30;;;;;;;;;;4065672;29;20060;-73
2023/11/02 17:14:38;;;;;;;6.20;2.13;;;;;;;;;;4062593;29;20055;-74
2023/11/02 17:16:40;;;;;;;6.45;2.28;;;;;;;;;;4064746;29;20052;-73
2023/11/02 17:18:43;;;;;;;7.53;2.38;;;;;;;;;;4066464;29;20079;-74
2023/11/02 17:20:45;;;;;;;6.97;2.15;;;;;;;;;;4066494;29;20482;-74
2023/11/02 17:22:48;;;;;;;5.85;2.00;;;;;;;;;;4066162;29;20056;-74
2023/11/02 17:24:50;;;;;;;4.80;2.00;;;;;;;;;;4066111;29;20106;-74
2023/11/02 17:26:54;;;;;;;6.25;1.95;;;;;;;;;;4065072;29;20419;-72
2023/11/02 17:28:56;;;;;;;23.45;11.50;;;;;;;;;;4066453;29;20060;-73
2023/11/02 17:30:58;;;;;;;27.60;13.63;;;;;;;;;;4068302;29;20052;-74
2023/11/02 17:33:01;;;;;;;19.83;8.93;;;;;;;;;;4066014;29;20052;-74
2023/11/02 17:35:03;;;;;;;15.98;7.25;;;;;;;;;;4065225;29;20058;-73
2023/11/02 17:37:06;;;;;;;16.20;7.40;;;;;;;;;;4073561;29;20128;-73
2023/11/02 17:39:09;;;;;;;14.55;6.45;;;;;;;;;;4084652;29;20516;-72
2023/11/02 17:41:10;;;;;;;14.77;6.22;;;;;;;;;;4079021;29;20052;-72
